Time;durP1;ratioP1;P1;durP2;ratioP2;P2;SDS_P1;SDS_P2;PMS_P1;PMS_P2;Temp;Humidity;BMP_temperature;BMP_pressure;BME280_temperature;BME280_humidity;BME280_pressure;Samples;Min_cycle;Max_cycle;Signal;HPM_P1;HPM_P2
2022/11/18 00:02:02;;;;;;;;;;;;;;;;;;5016514;28;7357;-76
2022/11/18 00:04:36;;;;;;;;;;;;;;;;;;5016419;28;7133;-76
2022/11/18 00:07:02;;;;;;;;;;;;;;;;;;5016384;28;6845;-75
2022/11/18 00:09:28;;;;;;;;;;;;;;;;;;5016267;28;7184;-74
2022/11/18 00:15:12;;;;;;;;;;;;;;;;;;5036261;28;6978;-73
2022/11/18 00:17:37;;;;;;;;;;;;;;;;;;5036146;28;7062;-74
2022/11/18 00:20:03;;;;;;;;;;;;;;;;;;5035760;28;6986;-73
2022/11/18 00:22:29;;;;;;;;;;;;;;;;;;5035874;28;7126;-73
2022/11/18 00:24:54;;;;;;;;;;;;;;;;;;5035793;28;7100;-73
2022/11/18 00:27:20;;;;;;;;;;;;;;;;;;5036375;28;7220;-74
2022/11/18 00:29:46;;;;;;;;;;;;;;;;;;5035659;28;7279;-73
2022/11/18 00:32:11;;;;;;;;;;;;;;;;;;5017868;28;7017;-73
2022/11/18 00:37:39;;;;;;;;;;;;;;;;;;5034975;28;6696;-73
2022/11/18 00:40:06;;;;;;;;;;;;;;;;;;5035456;28;7438;-74
2022/11/18 00:42:51;;;;;;;;;;;;;;;;;;5035491;28;6972;-73
2022/11/18 00:45:17;;;;;;;;;;;;;;;;;;5034231;28;8200;-73
2022/11/18 00:48:02;;;;;;;;;;;;;;;;;;5035337;28;6991;-74
2022/11/18 00:50:27;;;;;;;;;;;;;;;;;;5035311;28;7103;-73
2022/11/18 00:52:53;;;;;;;;;;;;;;;;;;5035918;28;7480;-73
2022/11/18 00:55:18;;;;;;;;;;;;;;;;;;5035304;28;7253;-73
2022/11/18 00:57:44;;;;;;;;;;;;;;;;;;5035227;28;7404;-73
2022/11/18 01:00:16;;;;;;;;;;;;;;;;;;5035104;28;7057;-73
2022/11/18 01:02:42;;;;;;;;;;;;;;;;;;5035274;28;7247;-74
2022/11/18 01:13:57;;;;;;;;;;;;;;;;;;5035345;28;6932;-73
2022/11/18 01:16:24;;;;;;;;;;;;;;;;;;5034942;28;7347;-74
2022/11/18 01:19:22;;;;;;;;;;;;;;;;;;5034916;28;6964;-73
2022/11/18 01:21:48;;;;;;;;;;;;;;;;;;5035061;28;7038;-73
2022/11/18 01:24:26;;;;;;;;;;;;;;;;;;5034793;28;7136;-73
2022/11/18 01:26:52;;;;;;;;;;;;;;;;;;5034826;28;7299;-73
2022/11/18 01:29:17;;;;;;;;;;;;;;;;;;5035212;28;7453;-73
2022/11/18 01:31:43;;;;;;;;;;;;;;;;;;5034674;28;7155;-73
2022/11/18 01:34:27;;;;;;;;;;;;;;;;;;5034658;28;7290;-73
2022/11/18 01:36:55;;;;;;;;;;;;;;;;;;5034764;28;7115;-74
2022/11/18 01:39:21;;;;;;;;;;;;;;;;;;5034176;28;7218;-74
2022/11/18 01:41:46;;;;;;;;;;;;;;;;;;5034601;28;7398;-73
2022/11/18 01:47:37;;;;;;;;;;;;;;;;;;5034273;28;6683;-73
2022/11/18 01:50:04;;;;;;;;;;;;;;;;;;5034076;28;7337;-73
2022/11/18 01:52:42;;;;;;;;;;;;;;;;;;5034498;28;7409;-73
2022/11/18 01:55:17;;;;;;;;;;;;;;;;;;5034450;28;7673;-73
2022/11/18 01:57:47;;;;;;;;;;;;;;;;;;5034133;28;7092;-73
2022/11/18 02:00:12;;;;;;;;;;;;;;;;;;5034298;28;7420;-73
2022/11/18 02:02:38;;;;;;;;;;;;;;;;;;5034189;28;7543;-73
2022/11/18 02:05:05;;;;;;;;;;;;;;;;;;5034174;28;7450;-74
2022/11/18 02:07:38;;;;;;;;;;;;;;;;;;5034260;28;7181;-73
2022/11/18 02:10:05;;;;;;;;;;;;;;;;;;5034178;28;7164;-73
2022/11/18 02:12:32;;;;;;;;;;;;;;;;;;5034091;28;7513;-73
2022/11/18 02:21:21;;;;;;;;;;;;;;;;;;5033980;28;6828;-73
2022/11/18 02:26:58;;;;;;;;;;;;;;;;;;5033951;28;6938;-73
2022/11/18 02:29:59;;;;;;;;;;;;;;;;;;5034006;28;6829;-74
2022/11/18 02:32:33;;;;;;;;;;;;;;;;;;5034113;28;7281;-73
2022/11/18 02:35:15;;;;;;;;;;;;;;;;;;5033856;28;7128;-73
2022/11/18 02:38:06;;;;;;;;;;;;;;;;;;5033507;28;7254;-73
2022/11/18 02:40:35;;;;;;;;;;;;;;;;;;5014075;28;7187;-74
2022/11/18 02:43:29;;;;;;;;;;;;;;;;;;5014061;28;7159;-74
2022/11/18 02:46:15;;;;;;;;;;;;;;;;;;4996214;28;8446;-73
2022/11/18 02:48:45;;;;;;;;;;;;;;;;;;5013969;28;6940;-73
2022/11/18 02:57:18;;;;;;;;;;;;;;;;;;5014265;28;6919;-74
2022/11/18 02:59:56;;;;;;;;;;;;;;;;;;5013864;28;7127;-74
2022/11/18 03:02:22;;;;;;;;;;;;;;;;;;5010115;28;7231;-76
2022/11/18 03:04:50;;;;;;;;;;;;;;;;;;4994443;28;7404;-75
2022/11/18 03:07:20;;;;;;;;;;;;;;;;;;4994397;28;6847;-76
2022/11/18 03:09:50;;;;;;;;;;;;;;;;;;5007617;28;7421;-76
2022/11/18 03:12:36;;;;;;;;;;;;;;;;;;5017484;28;6888;-76
2022/11/18 03:24:23;;;;;;;;;;;;;;;;;;5017338;28;7004;-76
2022/11/18 03:32:42;;;;;;;;;;;;;;;;;;5017299;28;7021;-76
2022/11/18 03:38:15;;;;;;;;;;;;;;;;;;5018783;28;6917;-76
2022/11/18 03:40:46;;;;;;;;;;;;;;;;;;5018749;28;9001;-75
2022/11/18 03:43:15;;;;;;;;;;;;;;;;;;5036686;28;7427;-75
2022/11/18 03:52:15;;;;;;;;;;;;;;;;;;5036334;28;6917;-76
2022/11/18 03:54:44;;;;;;;;;;;;;;;;;;5036159;28;7101;-76
2022/11/18 03:57:15;;;;;;;;;;;;;;;;;;5036417;28;7201;-76
2022/11/18 03:59:48;;;;;;;;;;;;;;;;;;5036368;28;7169;-76
2022/11/18 04:02:19;;;;;;;;;;;;;;;;;;5036361;28;7049;-75
2022/11/18 04:04:48;;;;;;;;;;;;;;;;;;5036269;28;7341;-76
2022/11/18 04:07:33;;;;;;;;;;;;;;;;;;5036015;28;7189;-75
2022/11/18 04:10:04;;;;;;;;;;;;;;;;;;5036128;28;7140;-76
2022/11/18 04:13:02;;;;;;;;;;;;;;;;;;5036112;28;7279;-75
2022/11/18 04:15:30;;;;;;;;;;;;;;;;;;5036166;28;7174;-76
2022/11/18 04:17:55;;;;;;;;;;;;;;;;;;5036095;28;7215;-76
2022/11/18 04:20:22;;;;;;;;;;;;;;;;;;5035839;28;7163;-75
2022/11/18 04:22:48;;;;;;;;;;;;;;;;;;5035978;28;7358;-75
2022/11/18 04:25:25;;;;;;;;;;;;;;;;;;5035857;28;7201;-74
2022/11/18 04:27:50;;;;;;;;;;;;;;;;;;5035943;28;7138;-75
2022/11/18 04:30:25;;;;;;;;;;;;;;;;;;5035625;28;7169;-76
2022/11/18 04:35:54;;;;;;;;;;;;;;;;;;5035381;28;7057;-76
2022/11/18 04:38:32;;;;;;;;;;;;;;;;;;5035293;28;7735;-76
2022/11/18 04:40:58;;;;;;;;;;;;;;;;;;5035574;28;7389;-75
2022/11/18 04:43:23;;;;;;;;;;;;;;;;;;5035586;28;6833;-75
2022/11/18 04:46:12;;;;;;;;;;;;;;;;;;5035360;28;7031;-75
2022/11/18 04:48:37;;;;;;;;;;;;;;;;;;5036129;28;7810;-76
2022/11/18 04:51:04;;;;;;;;;;;;;;;;;;5034884;28;6918;-75
2022/11/18 04:56:42;;;;;;;;;;;;;;;;;;5035872;28;6950;-76
2022/11/18 04:59:08;;;;;;;;;;;;;;;;;;5021482;28;7160;-76
2022/11/18 05:01:34;;;;;;;;;;;;;;;;;;5035480;28;6987;-75
2022/11/18 05:04:19;;;;;;;;;;;;;;;;;;5034986;28;7009;-77
2022/11/18 05:06:44;;;;;;;;;;;;;;;;;;5020548;28;7029;-75
2022/11/18 05:14:58;;;;;;;;;;;;;;;;;;5035643;28;6802;-75
2022/11/18 05:17:24;;;;;;;;;;;;;;;;;;5034931;28;7586;-75
2022/11/18 05:19:50;;;;;;;;;;;;;;;;;;5034828;28;7138;-75
2022/11/18 05:22:16;;;;;;;;;;;;;;;;;;5035336;28;7235;-75
2022/11/18 05:24:42;;;;;;;;;;;;;;;;;;5034864;28;7496;-76
2022/11/18 05:27:08;;;;;;;;;;;;;;;;;;5031162;28;7102;-75
2022/11/18 05:29:55;;;;;;;;;;;;;;;;;;5014975;28;6950;-76
2022/11/18 05:35:33;;;;;;;;;;;;;;;;;;5034504;28;6692;-76
2022/11/18 05:38:20;;;;;;;;;;;;;;;;;;5034240;28;7402;-68
2022/11/18 05:40:46;;;;;;;;;;;;;;;;;;5034844;28;7170;-68
2022/11/18 05:43:12;;;;;;;;;;;;;;;;;;5034603;28;7125;-68
2022/11/18 05:45:38;;;;;;;;;;;;;;;;;;5034479;28;7108;-68
2022/11/18 05:48:05;;;;;;;;;;;;;;;;;;5034509;28;7161;-68
2022/11/18 05:53:34;;;;;;;;;;;;;;;;;;5034616;28;6692;-68
2022/11/18 05:56:07;;;;;;;;;;;;;;;;;;5034457;28;7137;-68
2022/11/18 05:58:44;;;;;;;;;;;;;;;;;;5034389;28;6945;-68
2022/11/18 06:01:14;;;;;;;;;;;;;;;;;;5034525;28;6926;-68
2022/11/18 06:03:40;;;;;;;;;;;;;;;;;;5034274;28;7015;-68
2022/11/18 06:06:09;;;;;;;;;;;;;;;;;;5034295;28;7332;-68
2022/11/18 06:08:39;;;;;;;;;;;;;;;;;;5034186;28;7356;-68
2022/11/18 06:11:16;;;;;;;;;;;;;;;;;;5034329;28;7519;-67
2022/11/18 06:16:50;;;;;;;;;;;;;;;;;;5033970;28;6690;-62
2022/11/18 06:19:17;;;;;;;;;;;;;;;;;;5034121;28;7186;-76
2022/11/18 06:21:58;;;;;;;;;;;;;;;;;;5034222;28;6929;-65
2022/11/18 06:24:24;;;;;;;;;;;;;;;;;;5034092;28;6989;-68
2022/11/18 06:26:52;;;;;;;;;;;;;;;;;;5034071;28;7355;-69
2022/11/18 06:29:20;;;;;;;;;;;;;;;;;;5034142;28;7589;-69
2022/11/18 06:31:51;;;;;;;;;;;;;;;;;;5034145;28;7092;-73
2022/11/18 06:34:17;;;;;;;;;;;;;;;;;;5010268;28;7202;-68
2022/11/18 06:36:42;;;;;;;;;;;;;;;;;;4993896;28;7117;-68
2022/11/18 06:39:08;;;;;;;;;;;;;;;;;;4993874;28;7020;-68
2022/11/18 06:44:28;;;;;;;;;;;;;;;;;;4997120;28;6778;-68
2022/11/18 06:50:14;;;;;;;;;;;;;;;;;;5005977;28;7041;-68
2022/11/18 06:52:39;;;;;;;;;;;;;;;;;;5017127;28;7277;-69
2022/11/18 06:55:20;;;;;;;;;;;;;;;;;;5017642;28;7113;-69
2022/11/18 06:57:46;;;;;;;;;;;;;;;;;;5017230;28;6911;-69
2022/11/18 07:00:46;;;;;;;;;;;;;;;;;;5017142;28;7155;-68
2022/11/18 07:03:11;;;;;;;;;;;;;;;;;;5017538;28;7096;-69
2022/11/18 07:11:43;;;;;;;;;;;;;;;;;;5017412;28;6918;-68
2022/11/18 07:14:09;;;;;;;;;;;;;;;;;;5018120;28;7125;-69
2022/11/18 07:16:35;;;;;;;;;;;;;;;;;;5041987;23;7262;-75
2022/11/18 07:19:07;;;;;;;;;;;;;;;;;;4979980;28;8801;-75
2022/11/18 07:24:36;;;;;;;;;;;;;;;;;;4997459;28;6700;-75
2022/11/18 07:27:02;;;;;;;;;;;;;;;;;;4997355;28;7125;-75
2022/11/18 07:32:32;;;;;;;;;;;;;;;;;;4997502;28;6716;-75
2022/11/18 07:34:57;;;;;;;;;;;;;;;;;;4997474;28;7427;-75
2022/11/18 07:43:29;;;;;;;;;;;;;;;;;;4997135;28;6698;-75
2022/11/18 07:45:54;;;;;;;;;;;;;;;;;;4997191;28;7365;-75
2022/11/18 07:48:20;;;;;;;;;;;;;;;;;;4997209;28;7278;-75
2022/11/18 07:50:46;;;;;;;;;;;;;;;;;;4997208;28;6913;-76
2022/11/18 07:53:11;;;;;;;;;;;;;;;;;;4997580;28;7018;-75
2022/11/18 07:55:37;;;;;;;;;;;;;;;;;;4996713;28;7087;-75
2022/11/18 08:01:33;;;;;;;;;;;;;;;;;;4996782;28;6989;-75
2022/11/18 08:04:10;;;;;;;;;;;;;;;;;;4997152;28;7157;-75
2022/11/18 08:06:43;;;;;;;;;;;;;;;;;;4996838;28;7464;-76
2022/11/18 08:09:09;;;;;;;;;;;;;;;;;;4997071;28;7139;-75
2022/11/18 08:11:34;;;;;;;;;;;;;;;;;;4997407;28;6947;-74
2022/11/18 08:14:00;;;;;;;;;;;;;;;;;;4996847;28;7056;-75
2022/11/18 08:16:27;;;;;;;;;;;;;;;;;;4996191;28;7043;-76
2022/11/18 08:18:59;;;;;;;;;;;;;;;;;;4996676;28;7430;-75
2022/11/18 08:21:25;;;;;;;;;;;;;;;;;;4996585;28;7786;-75
2022/11/18 08:23:57;;;;;;;;;;;;;;;;;;4979124;28;8861;-76
2022/11/18 08:29:26;;;;;;;;;;;;;;;;;;4996402;28;7050;-76
2022/11/18 08:31:55;;;;;;;;;;;;;;;;;;4996596;28;7208;-76
2022/11/18 08:34:21;;;;;;;;;;;;;;;;;;4996415;28;7150;-75
2022/11/18 08:40:02;;;;;;;;;;;;;;;;;;4996091;28;7038;-76
2022/11/18 08:42:30;;;;;;;;;;;;;;;;;;4996253;28;7416;-76
2022/11/18 08:44:56;;;;;;;;;;;;;;;;;;4996192;28;7149;-76
2022/11/18 08:47:21;;;;;;;;;;;;;;;;;;4996825;28;6838;-76
2022/11/18 08:49:47;;;;;;;;;;;;;;;;;;4996250;28;7249;-76
2022/11/18 08:52:13;;;;;;;;;;;;;;;;;;4996144;28;6975;-76
2022/11/18 08:54:42;;;;;;;;;;;;;;;;;;4996073;28;6978;-75
2022/11/18 08:57:07;;;;;;;;;;;;;;;;;;4995755;28;6971;-75
2022/11/18 08:59:33;;;;;;;;;;;;;;;;;;4995690;28;7349;-75
2022/11/18 09:02:27;;;;;;;;;;;;;;;;;;4979841;28;7067;-76
2022/11/18 09:04:52;;;;;;;;;;;;;;;;;;4993744;28;7090;-76
2022/11/18 09:07:20;;;;;;;;;;;;;;;;;;4995724;28;7069;-76
2022/11/18 09:12:49;;;;;;;;;;;;;;;;;;4995562;28;6936;-76
2022/11/18 09:15:14;;;;;;;;;;;;;;;;;;4995382;28;7166;-75
2022/11/18 09:17:40;;;;;;;;;;;;;;;;;;4995717;28;7034;-77
2022/11/18 09:23:35;;;;;;;;;;;;;;;;;;4995418;28;6980;-71
2022/11/18 09:26:03;;;;;;;;;;;;;;;;;;4995709;28;7570;-74
2022/11/18 09:28:38;;;;;;;;;;;;;;;;;;4995517;28;7332;-75
2022/11/18 09:31:06;;;;;;;;;;;;;;;;;;4995662;28;7270;-74
2022/11/18 09:37:00;;;;;;;;;;;;;;;;;;4995130;28;6678;-75
2022/11/18 09:39:25;;;;;;;;;;;;;;;;;;4995441;28;7006;-74
2022/11/18 09:51:27;;;;;;;;;;;;;;;;;;4994966;28;6901;-75
2022/11/18 09:53:53;;;;;;;;;;;;;;;;;;4995671;28;8864;-74
2022/11/18 09:56:21;;;;;;;;;;;;;;;;;;4995834;28;7137;-75
2022/11/18 09:58:47;;;;;;;;;;;;;;;;;;4995039;28;7215;-75
2022/11/18 10:01:18;;;;;;;;;;;;;;;;;;4995085;28;7170;-74
2022/11/18 10:03:44;;;;;;;;;;;;;;;;;;4994987;28;7245;-74
2022/11/18 10:09:36;;;;;;;;;;;;;;;;;;4994708;28;7017;-74
2022/11/18 10:12:19;;;;;;;;;;;;;;;;;;4994996;28;7398;-75
2022/11/18 10:17:53;;;;;;;;;;;;;;;;;;4995543;28;6918;-75
2022/11/18 10:20:38;;;;;;;;;;;;;;;;;;4998798;28;7427;-75
2022/11/18 10:23:18;;;;;;;;;;;;;;;;;;4998582;28;7163;-74
2022/11/18 10:25:44;;;;;;;;;;;;;;;;;;4998551;28;7422;-74
2022/11/18 10:28:15;;;;;;;;;;;;;;;;;;4998802;28;7056;-74
2022/11/18 10:30:41;;;;;;;;;;;;;;;;;;4998488;28;7073;-74
2022/11/18 10:39:23;;;;;;;;;;;;;;;;;;4957467;28;7057;-74
2022/11/18 10:41:52;;;;;;;;;;;;;;;;;;4941523;28;8501;-74
2022/11/18 10:44:36;;;;;;;;;;;;;;;;;;4957737;28;7392;-74
2022/11/18 10:49:50;;;;;;;;;;;;;;;;;;4958000;28;7076;-74
2022/11/18 10:52:52;;;;;;;;;;;;;;;;;;4957323;28;7218;-75
2022/11/18 10:55:20;;;;;;;;;;;;;;;;;;4957348;28;7550;-74
2022/11/18 10:57:47;;;;;;;;;;;;;;;;;;4958109;28;7421;-73
2022/11/18 11:06:33;;;;;;;;;;;;;;;;;;4957293;28;6976;-74
2022/11/18 11:09:35;;;;;;;;;;;;;;;;;;4957105;28;7435;-74
2022/11/18 11:12:27;;;;;;;;;;;;;;;;;;4970234;28;7047;-75
2022/11/18 11:14:55;;;;;;;;;;;;;;;;;;4998028;28;7125;-74
2022/11/18 11:17:43;;;;;;;;;;;;;;;;;;4998309;28;7223;-74
2022/11/18 11:20:19;;;;;;;;;;;;;;;;;;4997801;28;7248;-74
2022/11/18 11:23:00;;;;;;;;;;;;;;;;;;4997902;28;7212;-74
2022/11/18 11:25:25;;;;;;;;;;;;;;;;;;4997468;28;7035;-75
2022/11/18 11:34:10;;;;;;;;;;;;;;;;;;4998151;28;6799;-74
2022/11/18 11:36:54;;;;;;;;;;;;;;;;;;4997508;28;7189;-75
2022/11/18 11:45:51;;;;;;;;;;;;;;;;;;4997252;28;6683;-75
2022/11/18 12:00:54;;;;;;;;;;;;;;;;;;4997080;28;6680;-75
2022/11/18 12:06:54;;;;;;;;;;;;;;;;;;4997214;28;6808;-74
2022/11/18 12:09:39;;;;;;;;;;;;;;;;;;4996791;28;7330;-74
2022/11/18 12:12:36;;;;;;;;;;;;;;;;;;4996826;28;7190;-76
2022/11/18 12:17:56;;;;;;;;;;;;;;;;;;4996425;28;6944;-75
2022/11/18 12:20:39;;;;;;;;;;;;;;;;;;4996630;28;7333;-75
2022/11/18 12:26:09;;;;;;;;;;;;;;;;;;4996229;28;6680;-75
2022/11/18 12:28:40;;;;;;;;;;;;;;;;;;4996670;28;7117;-76
2022/11/18 12:31:15;;;;;;;;;;;;;;;;;;4996376;28;6955;-75
2022/11/18 12:39:47;;;;;;;;;;;;;;;;;;4996076;28;6681;-75
2022/11/18 12:46:00;;;;;;;;;;;;;;;;;;4978852;28;6905;-74
2022/11/18 12:48:34;;;;;;;;;;;;;;;;;;4996209;28;7424;-75
2022/11/18 12:54:19;;;;;;;;;;;;;;;;;;5128698;23;6820;-70
2022/11/18 12:56:47;;;;;;;;;;;;;;;;;;4995546;28;7206;-75
2022/11/18 12:59:12;;;;;;;;;;;;;;;;;;4978323;28;7009;-75
2022/11/18 13:10:37;;;;;;;;;;;;;;;;;;4995523;28;7024;-75
2022/11/18 13:19:08;;;;;;;;;;;;;;;;;;4995601;28;6797;-75
2022/11/18 13:24:42;;;;;;;;;;;;;;;;;;4995660;28;6795;-76
2022/11/18 13:30:37;;;;;;;;;;;;;;;;;;4995560;28;6807;-74
2022/11/18 13:33:02;;;;;;;;;;;;;;;;;;4996040;28;7093;-75
2022/11/18 13:35:28;;;;;;;;;;;;;;;;;;4995507;28;7215;-75
2022/11/18 13:43:39;;;;;;;;;;;;;;;;;;4995331;28;6798;-75
2022/11/18 13:46:13;;;;;;;;;;;;;;;;;;4995195;28;7213;-75
2022/11/18 13:48:46;;;;;;;;;;;;;;;;;;4995066;28;6948;-75
2022/11/18 13:51:28;;;;;;;;;;;;;;;;;;4995217;28;7328;-75
2022/11/18 13:53:54;;;;;;;;;;;;;;;;;;4994820;28;7251;-75
2022/11/18 13:56:24;;;;;;;;;;;;;;;;;;4995874;28;7301;-74
2022/11/18 13:58:55;;;;;;;;;;;;;;;;;;4995008;28;6990;-76
2022/11/18 14:01:26;;;;;;;;;;;;;;;;;;4994652;28;6944;-75
2022/11/18 14:04:06;;;;;;;;;;;;;;;;;;4994673;28;7940;-75
2022/11/18 14:06:58;;;;;;;;;;;;;;;;;;4978119;28;7181;-75
2022/11/18 14:09:28;;;;;;;;;;;;;;;;;;4994634;28;7182;-74
2022/11/18 14:18:03;;;;;;;;;;;;;;;;;;4994837;28;6688;-74
2022/11/18 14:20:30;;;;;;;;;;;;;;;;;;4994702;28;7405;-75
2022/11/18 14:22:57;;;;;;;;;;;;;;;;;;4994828;28;7165;-75
2022/11/18 14:25:41;;;;;;;;;;;;;;;;;;4994819;28;6976;-75
2022/11/18 14:28:25;;;;;;;;;;;;;;;;;;4995078;28;7189;-75
2022/11/18 14:34:12;;;;;;;;;;;;;;;;;;4993504;28;6720;-75
2022/11/18 14:39:41;;;;;;;;;;;;;;;;;;4994396;28;6897;-74
2022/11/18 14:42:12;;;;;;;;;;;;;;;;;;5038465;23;7133;-75
2022/11/18 14:44:37;;;;;;;;;;;;;;;;;;5102266;23;6949;-69
2022/11/18 14:47:12;;;;;;;;;;;;;;;;;;5054605;23;7440;-69
2022/11/18 14:49:37;;;;;;;;;;;;;;;;;;5013422;28;7375;-70
2022/11/18 14:52:05;;;;;;;;;;;;;;;;;;5013993;28;7035;-69
2022/11/18 14:54:30;;;;;;;;;;;;;;;;;;5014254;28;7201;-68
2022/11/18 14:57:05;;;;;;;;;;;;;;;;;;5013859;28;6912;-69
2022/11/18 14:59:30;;;;;;;;;;;;;;;;;;5013664;28;6928;-69
2022/11/18 15:08:02;;;;;;;;;;;;;;;;;;5017308;28;6924;-70
2022/11/18 15:10:41;;;;;;;;;;;;;;;;;;5017503;28;7200;-70
2022/11/18 15:13:07;;;;;;;;;;;;;;;;;;5017506;28;7372;-69
2022/11/18 15:18:37;;;;;;;;;;;;;;;;;;5017280;28;6683;-69
2022/11/18 15:21:02;;;;;;;;;;;;;;;;;;5017250;28;7233;-70
2022/11/18 15:23:28;;;;;;;;;;;;;;;;;;5017284;28;6934;-69
2022/11/18 15:38:44;;;;;;;;;;;;;;;;;;5092682;27;6963;-71
2022/11/18 15:41:20;;;;;;;;;;;;;;;;;;5051942;28;6859;-72
2022/11/18 15:43:46;;;;;;;;;;;;;;;;;;5052043;28;6999;-72
2022/11/18 15:46:12;;;;;;;;;;;;;;;;;;5051635;28;6964;-74
2022/11/18 15:48:38;;;;;;;;;;;;;;;;;;5051465;28;7965;-74
2022/11/18 15:51:04;;;;;;;;;;;;;;;;;;5051669;28;6823;-73
2022/11/18 15:53:52;;;;;;;;;;;;;;;;;;5051993;28;7201;-74
2022/11/18 15:56:17;;;;;;;;;;;;;;;;;;5051086;28;6946;-73
2022/11/18 15:58:54;;;;;;;;;;;;;;;;;;5066801;28;7406;-74
2022/11/18 16:01:20;;;;;;;;;;;;;;;;;;5051287;28;7440;-75
2022/11/18 16:03:45;;;;;;;;;;;;;;;;;;5048765;28;7266;-74
2022/11/18 16:06:21;;;;;;;;;;;;;;;;;;5050975;28;7098;-74
2022/11/18 16:08:47;;;;;;;;;;;;;;;;;;5050364;28;8180;-73
2022/11/18 16:14:07;;;;;;;;;;;;;;;;;;5050740;28;6960;-73
2022/11/18 16:16:33;;;;;;;;;;;;;;;;;;5050642;28;7122;-74
2022/11/18 16:19:02;;;;;;;;;;;;;;;;;;5050499;28;7226;-74
2022/11/18 16:27:34;;;;;;;;;;;;;;;;;;5050213;28;6667;-73
2022/11/18 16:32:54;;;;;;;;;;;;;;;;;;5030713;28;6806;-74
2022/11/18 16:35:26;;;;;;;;;;;;;;;;;;5030475;28;7145;-74
2022/11/18 16:38:02;;;;;;;;;;;;;;;;;;5026900;28;7399;-73
2022/11/18 16:40:28;;;;;;;;;;;;;;;;;;5017176;28;7049;-73
2022/11/18 16:43:05;;;;;;;;;;;;;;;;;;5017205;28;6931;-74
2022/11/18 16:45:31;;;;;;;;;;;;;;;;;;5035944;28;7008;-74
2022/11/18 16:47:59;;;;;;;;;;;;;;;;;;5037899;28;8103;-74
2022/11/18 16:50:24;;;;;;;;;;;;;;;;;;5037235;28;7283;-74
2022/11/18 16:53:25;;;;;;;;;;;;;;;;;;5037557;28;6972;-73
2022/11/18 16:55:50;;;;;;;;;;;;;;;;;;5037261;28;7476;-74
2022/11/18 16:58:16;;;;;;;;;;;;;;;;;;5037192;28;7178;-74
2022/11/18 17:00:42;;;;;;;;;;;;;;;;;;5018260;28;7122;-73
2022/11/18 17:03:14;;;;;;;;;;;;;;;;;;5017780;28;6968;-73
2022/11/18 17:05:39;;;;;;;;;;;;;;;;;;5016739;28;7344;-73
2022/11/18 17:08:23;;;;;;;;;;;;;;;;;;5017547;28;7072;-73
2022/11/18 17:10:48;;;;;;;;;;;;;;;;;;5017487;28;7116;-73
2022/11/18 17:13:28;;;;;;;;;;;;;;;;;;5017091;28;7170;-72
2022/11/18 17:15:53;;;;;;;;;;;;;;;;;;5017531;28;7078;-73
2022/11/18 17:18:27;;;;;;;;;;;;;;;;;;5016790;28;6975;-73
2022/11/18 17:20:52;;;;;;;;;;;;;;;;;;5015709;28;7272;-71
2022/11/18 17:23:20;;;;;;;;;;;;;;;;;;5017137;28;7034;-73
2022/11/18 17:25:46;;;;;;;;;;;;;;;;;;5017530;28;7109;-73
2022/11/18 17:28:11;;;;;;;;;;;;;;;;;;5017306;28;6955;-72
2022/11/18 17:33:40;;;;;;;;;;;;;;;;;;5016488;28;6944;-72
2022/11/18 17:36:22;;;;;;;;;;;;;;;;;;5016628;28;7192;-72
2022/11/18 17:38:49;;;;;;;;;;;;;;;;;;5016548;28;8515;-73
2022/11/18 17:44:10;;;;;;;;;;;;;;;;;;5016610;28;6939;-72
2022/11/18 17:46:37;;;;;;;;;;;;;;;;;;5016305;28;6883;-73
2022/11/18 17:49:13;;;;;;;;;;;;;;;;;;5015906;28;7083;-72
2022/11/18 17:51:40;;;;;;;;;;;;;;;;;;5015531;28;7241;-72
2022/11/18 17:54:06;;;;;;;;;;;;;;;;;;5016588;28;6897;-74
2022/11/18 17:56:32;;;;;;;;;;;;;;;;;;5016194;28;7218;-72
2022/11/18 17:58:59;;;;;;;;;;;;;;;;;;5015945;28;7284;-72
2022/11/18 18:01:25;;;;;;;;;;;;;;;;;;5016805;28;7221;-72
2022/11/18 18:03:59;;;;;;;;;;;;;;;;;;5016551;28;6928;-72
2022/11/18 18:06:25;;;;;;;;;;;;;;;;;;5016376;28;7262;-73
2022/11/18 18:09:02;;;;;;;;;;;;;;;;;;5015650;28;7533;-72
2022/11/18 18:11:28;;;;;;;;;;;;;;;;;;5016607;28;7046;-72
2022/11/18 18:14:12;;;;;;;;;;;;;;;;;;5016424;28;7010;-72
2022/11/18 18:16:43;;;;;;;;;;;;;;;;;;5015935;28;7275;-71
2022/11/18 18:19:16;;;;;;;;;;;;;;;;;;5015709;28;7318;-72
2022/11/18 18:21:42;;;;;;;;;;;;;;;;;;5016014;28;7805;-72
2022/11/18 18:24:08;;;;;;;;;;;;;;;;;;5015895;28;7346;-72
2022/11/18 18:26:35;;;;;;;;;;;;;;;;;;5015867;28;7366;-73
2022/11/18 18:29:15;;;;;;;;;;;;;;;;;;5015887;28;6979;-73
2022/11/18 18:31:41;;;;;;;;;;;;;;;;;;5015821;28;6924;-73
2022/11/18 18:34:07;;;;;;;;;;;;;;;;;;5015719;28;6999;-71
2022/11/18 18:36:32;;;;;;;;;;;;;;;;;;5014791;28;7248;-72
2022/11/18 18:38:59;;;;;;;;;;;;;;;;;;5015259;28;7201;-73
2022/11/18 18:41:25;;;;;;;;;;;;;;;;;;5016188;28;7273;-72
2022/11/18 18:44:00;;;;;;;;;;;;;;;;;;5016087;28;7051;-73
2022/11/18 18:46:33;;;;;;;;;;;;;;;;;;5016206;28;7398;-73
2022/11/18 18:49:01;;;;;;;;;;;;;;;;;;5015863;28;6867;-73
2022/11/18 18:51:31;;;;;;;;;;;;;;;;;;5014897;28;7038;-74
2022/11/18 18:53:58;;;;;;;;;;;;;;;;;;5015083;28;7072;-74
2022/11/18 18:56:24;;;;;;;;;;;;;;;;;;5014974;28;7047;-73
2022/11/18 18:58:57;;;;;;;;;;;;;;;;;;5015197;28;7002;-73
2022/11/18 19:01:22;;;;;;;;;;;;;;;;;;5015380;28;7060;-74
2022/11/18 19:03:53;;;;;;;;;;;;;;;;;;5015090;28;7046;-73
2022/11/18 19:06:26;;;;;;;;;;;;;;;;;;5015263;28;8120;-73
2022/11/18 19:08:53;;;;;;;;;;;;;;;;;;5014700;28;6982;-73
2022/11/18 19:14:10;;;;;;;;;;;;;;;;;;5014899;28;6940;-73
2022/11/18 19:16:36;;;;;;;;;;;;;;;;;;5014933;28;7207;-73
2022/11/18 19:19:05;;;;;;;;;;;;;;;;;;5014447;28;7281;-73
2022/11/18 19:21:34;;;;;;;;;;;;;;;;;;5015144;28;7143;-73
2022/11/18 19:24:08;;;;;;;;;;;;;;;;;;5014820;28;7175;-75
2022/11/18 19:26:34;;;;;;;;;;;;;;;;;;5014690;28;7276;-73
2022/11/18 19:28:59;;;;;;;;;;;;;;;;;;5014802;28;7014;-73
2022/11/18 19:31:26;;;;;;;;;;;;;;;;;;5014854;28;6932;-73
2022/11/18 19:33:52;;;;;;;;;;;;;;;;;;5015174;28;7172;-73
2022/11/18 19:36:27;;;;;;;;;;;;;;;;;;5014844;28;7221;-73
2022/11/18 19:38:53;;;;;;;;;;;;;;;;;;5013213;28;7124;-73
2022/11/18 19:41:21;;;;;;;;;;;;;;;;;;5015398;28;7125;-73
2022/11/18 19:43:47;;;;;;;;;;;;;;;;;;5015132;28;7268;-72
2022/11/18 19:46:14;;;;;;;;;;;;;;;;;;5015189;28;7021;-72
2022/11/18 19:48:39;;;;;;;;;;;;;;;;;;5014415;28;7015;-73
2022/11/18 19:51:39;;;;;;;;;;;;;;;;;;5014281;28;6938;-73
2022/11/18 19:54:04;;;;;;;;;;;;;;;;;;5014534;28;8150;-73
2022/11/18 19:56:30;;;;;;;;;;;;;;;;;;5014304;28;6967;-71
2022/11/18 19:58:56;;;;;;;;;;;;;;;;;;5014386;28;7309;-72
2022/11/18 20:01:27;;;;;;;;;;;;;;;;;;5014434;28;7114;-73
2022/11/18 20:03:57;;;;;;;;;;;;;;;;;;5014424;28;7079;-71
2022/11/18 20:06:25;;;;;;;;;;;;;;;;;;5014810;28;7340;-72
2022/11/18 20:08:54;;;;;;;;;;;;;;;;;;5015000;28;7374;-72
2022/11/18 20:11:24;;;;;;;;;;;;;;;;;;5014176;28;7138;-71
2022/11/18 20:13:52;;;;;;;;;;;;;;;;;;5015860;28;6997;-72
2022/11/18 20:16:21;;;;;;;;;;;;;;;;;;5018051;28;6999;-74
2022/11/18 20:21:52;;;;;;;;;;;;;;;;;;5027313;28;7014;-74
2022/11/18 20:24:18;;;;;;;;;;;;;;;;;;5037760;28;6966;-74
2022/11/18 20:26:45;;;;;;;;;;;;;;;;;;5038428;28;7265;-74
2022/11/18 20:29:11;;;;;;;;;;;;;;;;;;5038387;28;7078;-74
2022/11/18 20:31:38;;;;;;;;;;;;;;;;;;5028129;28;7409;-73
2022/11/18 20:34:04;;;;;;;;;;;;;;;;;;5026660;28;7759;-73
2022/11/18 20:36:36;;;;;;;;;;;;;;;;;;5029199;28;7017;-74
2022/11/18 20:39:06;;;;;;;;;;;;;;;;;;5017521;28;7175;-73
2022/11/18 20:41:32;;;;;;;;;;;;;;;;;;5017782;28;7019;-72
2022/11/18 20:43:58;;;;;;;;;;;;;;;;;;5018200;28;8723;-73
2022/11/18 20:46:24;;;;;;;;;;;;;;;;;;5017649;28;7113;-73
2022/11/18 20:48:49;;;;;;;;;;;;;;;;;;5017222;28;6957;-73
2022/11/18 20:51:19;;;;;;;;;;;;;;;;;;5017359;28;7160;-74
2022/11/18 20:53:44;;;;;;;;;;;;;;;;;;5017170;28;7189;-73
2022/11/18 20:56:15;;;;;;;;;;;;;;;;;;5017314;28;7112;-72
2022/11/18 20:58:44;;;;;;;;;;;;;;;;;;5017004;28;7172;-73
2022/11/18 21:01:12;;;;;;;;;;;;;;;;;;5017203;28;6891;-73
2022/11/18 21:03:38;;;;;;;;;;;;;;;;;;5017181;28;7649;-72
2022/11/18 21:06:09;;;;;;;;;;;;;;;;;;5017003;28;7163;-72
2022/11/18 21:08:35;;;;;;;;;;;;;;;;;;5017659;28;7073;-73
2022/11/18 21:11:03;;;;;;;;;;;;;;;;;;5017189;28;7046;-74
2022/11/18 21:16:23;;;;;;;;;;;;;;;;;;5017369;28;6805;-72
2022/11/18 21:18:49;;;;;;;;;;;;;;;;;;5016793;28;7571;-73
2022/11/18 21:21:45;;;;;;;;;;;;;;;;;;5016963;28;7189;-74
2022/11/18 21:24:14;;;;;;;;;;;;;;;;;;5017396;28;7185;-73
2022/11/18 21:26:41;;;;;;;;;;;;;;;;;;5016300;28;6848;-73
2022/11/18 21:29:08;;;;;;;;;;;;;;;;;;5016940;28;7286;-74
2022/11/18 21:31:34;;;;;;;;;;;;;;;;;;5017107;28;7010;-72
2022/11/18 21:34:00;;;;;;;;;;;;;;;;;;5016417;28;7422;-74
2022/11/18 21:36:27;;;;;;;;;;;;;;;;;;5016073;28;7253;-72
2022/11/18 21:38:53;;;;;;;;;;;;;;;;;;5017152;28;6966;-73
2022/11/18 21:41:19;;;;;;;;;;;;;;;;;;5016537;28;7228;-72
2022/11/18 21:46:36;;;;;;;;;;;;;;;;;;5016883;28;6971;-74
2022/11/18 21:49:03;;;;;;;;;;;;;;;;;;5016294;28;7042;-73
2022/11/18 21:54:33;;;;;;;;;;;;;;;;;;5016097;28;7113;-72
2022/11/18 21:56:59;;;;;;;;;;;;;;;;;;5016646;28;7037;-73
2022/11/18 21:59:31;;;;;;;;;;;;;;;;;;5016202;28;7129;-73
2022/11/18 22:01:57;;;;;;;;;;;;;;;;;;5016307;28;7152;-73
2022/11/18 22:07:07;;;;;;;;;;;;;;;;;;5016569;28;7025;-74
2022/11/18 22:09:34;;;;;;;;;;;;;;;;;;5015777;28;7161;-73
2022/11/18 22:12:00;;;;;;;;;;;;;;;;;;5015898;28;7264;-73
2022/11/18 22:14:45;;;;;;;;;;;;;;;;;;5015865;28;7433;-73
2022/11/18 22:17:10;;;;;;;;;;;;;;;;;;5015787;28;7097;-73
2022/11/18 22:19:36;;;;;;;;;;;;;;;;;;5015776;28;7121;-74
2022/11/18 22:22:02;;;;;;;;;;;;;;;;;;5015820;28;7384;-74
2022/11/18 22:24:27;;;;;;;;;;;;;;;;;;5015857;28;7020;-73